createdAt,value
2022-09-24T00:02:37.487Z,8.90
2022-09-24T00:06:43.993Z,8.80
2022-09-24T00:10:48.629Z,8.60
2022-09-24T00:14:50.959Z,9.20
2022-09-24T00:18:54.560Z,9.80
2022-09-24T00:22:56.592Z,9.00
2022-09-24T00:26:59.182Z,7.70
2022-09-24T00:31:07.151Z,8.10
2022-09-24T00:35:09.471Z,9.10
2022-09-24T00:39:11.485Z,9.40
2022-09-24T00:43:34.125Z,11.50
2022-09-24T00:47:40.180Z,9.40
2022-09-24T00:51:47.025Z,9.00
2022-09-24T00:56:09.904Z,10.20
2022-09-24T01:00:12.675Z,8.10
2022-09-24T01:04:20.909Z,8.40
2022-09-24T01:08:22.985Z,8.70
2022-09-24T01:12:36.444Z,9.50
2022-09-24T01:17:07.324Z,8.00
2022-09-24T01:21:34.484Z,7.50
2022-09-24T01:26:08.777Z,8.70
2022-09-24T01:30:14.922Z,8.70
2022-09-24T01:34:22.560Z,8.00
2022-09-24T01:38:29.463Z,7.90
2022-09-24T01:42:33.006Z,8.50
2022-09-24T01:46:40.757Z,7.50
2022-09-24T01:50:58.818Z,7.10
2022-09-24T01:55:03.596Z,7.50
2022-09-24T01:59:15.507Z,8.70
2022-09-24T02:03:34.673Z,7.20
2022-09-24T02:12:02.497Z,7.40
2022-09-24T02:16:05.800Z,7.80
2022-09-24T02:20:14.787Z,8.40
2022-09-24T02:28:23.678Z,9.10
2022-09-24T02:32:30.644Z,9.90
2022-09-24T02:36:32.743Z,9.80
2022-09-24T02:40:34.901Z,9.80
2022-09-24T02:44:37.126Z,10.50
2022-09-24T02:48:39.319Z,11.50
2022-09-24T02:52:44.144Z,12.30
2022-09-24T02:56:46.378Z,12.20
2022-09-24T03:00:48.482Z,13.20
2022-09-24T03:04:51.538Z,12.30
2022-09-24T03:08:54.057Z,11.50
2022-09-24T03:12:56.901Z,11.90
2022-09-24T03:16:59.645Z,14.30
2022-09-24T03:21:05.500Z,14.00
2022-09-24T03:25:08.073Z,12.70
2022-09-24T03:29:10.429Z,12.50
2022-09-24T03:33:13.397Z,13.00
2022-09-24T03:37:15.912Z,11.30
2022-09-24T03:41:18.322Z,10.00
2022-09-24T03:45:20.399Z,11.70
2022-09-24T03:49:23.330Z,14.30
2022-09-24T03:53:25.351Z,11.50
2022-09-24T03:57:27.426Z,11.60
2022-09-24T04:01:30.931Z,12.50
2022-09-24T04:05:34.338Z,13.20
2022-09-24T04:09:36.385Z,13.30
2022-09-24T04:13:38.385Z,14.10
2022-09-24T04:17:40.432Z,11.80
2022-09-24T04:21:43.199Z,11.10
2022-09-24T04:25:45.285Z,11.80
2022-09-24T04:29:47.319Z,11.80
2022-09-24T04:33:49.355Z,13.10
2022-09-24T04:37:51.980Z,14.50
2022-09-24T04:41:54.155Z,14.10
2022-09-24T04:45:59.979Z,13.50
2022-09-24T04:50:03.883Z,16.90
2022-09-24T04:54:06.676Z,15.30
2022-09-24T04:58:09.360Z,15.80
2022-09-24T05:02:11.476Z,13.90
2022-09-24T05:06:13.746Z,14.40
2022-09-24T05:10:15.825Z,13.10
2022-09-24T05:14:17.845Z,15.10
2022-09-24T05:18:19.949Z,15.20
2022-09-24T05:22:22.068Z,14.00
2022-09-24T05:26:42.987Z,13.10
2022-09-24T05:30:45.139Z,12.60
2022-09-24T05:34:47.694Z,13.20
2022-09-24T05:38:49.798Z,14.20
2022-09-24T05:42:58.774Z,12.90
2022-09-24T05:51:05.034Z,12.00
2022-09-24T05:55:09.645Z,12.30
2022-09-24T05:59:12.625Z,10.40
2022-09-24T06:03:16.907Z,13.50
2022-09-24T06:07:21.029Z,11.00
2022-09-24T06:11:23.428Z,11.60
2022-09-24T06:15:26.914Z,11.10
2022-09-24T06:19:28.897Z,10.80
2022-09-24T06:23:31.302Z,12.10
2022-09-24T06:27:33.297Z,11.60
2022-09-24T06:31:36.288Z,12.50
2022-09-24T06:35:42.334Z,13.40
2022-09-24T06:39:45.173Z,12.90
2022-09-24T06:43:47.196Z,13.30
2022-09-24T06:47:53.510Z,13.60
2022-09-24T06:52:06.576Z,12.80
2022-09-24T06:56:09.378Z,12.80
2022-09-24T07:00:31.150Z,14.40
2022-09-24T07:04:35.944Z,11.80
2022-09-24T07:08:38.001Z,14.50
2022-09-24T07:12:43.825Z,14.20
2022-09-24T07:16:47.353Z,12.90
2022-09-24T07:20:53.916Z,12.40
2022-09-24T07:24:56.033Z,15.10
2022-09-24T07:28:58.069Z,14.80
2022-09-24T07:33:00.188Z,14.40
2022-09-24T07:37:02.246Z,14.20
2022-09-24T07:41:05.729Z,13.30
2022-09-24T07:45:09.503Z,12.30
2022-09-24T07:49:11.689Z,10.80
2022-09-24T07:53:14.849Z,13.20
2022-09-24T07:57:16.990Z,13.30
2022-09-24T08:01:20.334Z,12.40
2022-09-24T08:05:22.653Z,12.00
2022-09-24T08:09:24.795Z,12.30
2022-09-24T08:13:28.020Z,15.30
2022-09-24T08:17:31.257Z,12.10
2022-09-24T08:21:33.643Z,12.10
2022-09-24T08:25:35.928Z,13.00
2022-09-24T08:29:38.073Z,11.10
2022-09-24T08:33:40.763Z,9.60
2022-09-24T08:37:42.991Z,9.10
2022-09-24T08:42:00.015Z,8.00
2022-09-24T08:46:29.787Z,9.00
2022-09-24T08:50:35.737Z,8.90
2022-09-24T08:54:39.100Z,5.80
2022-09-24T08:58:59.173Z,5.20
2022-09-24T09:03:27.626Z,4.40
2022-09-24T09:07:46.452Z,4.70
2022-09-24T09:11:52.407Z,3.10
2022-09-24T09:16:07.016Z,3.00
2022-09-24T09:20:18.583Z,2.60
2022-09-24T09:24:38.519Z,2.10
2022-09-24T09:28:41.177Z,3.00
2022-09-24T09:32:43.664Z,2.70
2022-09-24T09:36:53.215Z,1.60
2022-09-24T09:41:17.435Z,3.10
2022-09-24T09:45:27.929Z,2.00
2022-09-24T09:49:38.185Z,2.20
2022-09-24T09:53:40.768Z,1.70
2022-09-24T09:57:43.102Z,1.50
2022-09-24T10:01:49.338Z,1.90
2022-09-24T10:06:03.061Z,1.80
2022-09-24T10:10:23.448Z,1.80
2022-09-24T10:14:25.645Z,1.70
2022-09-24T10:18:47.983Z,2.40
2022-09-24T10:23:12.061Z,1.60
2022-09-24T10:27:23.870Z,2.20
2022-09-24T10:31:30.796Z,2.00
2022-09-24T10:35:38.191Z,2.00
2022-09-24T10:39:41.061Z,2.20
2022-09-24T10:44:02.311Z,1.70
2022-09-24T10:48:18.617Z,2.00
2022-09-24T10:52:54.608Z,1.70
2022-09-24T10:56:59.977Z,2.10
2022-09-24T11:01:40.296Z,1.30
2022-09-24T11:05:52.918Z,1.50
2022-09-24T11:10:23.350Z,1.50
2022-09-24T11:14:51.082Z,2.30
2022-09-24T11:19:26.139Z,1.40
2022-09-24T11:23:38.028Z,1.10
2022-09-24T11:28:33.844Z,1.60
2022-09-24T11:32:55.649Z,1.20
2022-09-24T11:37:11.497Z,1.40
2022-09-24T11:41:31.891Z,1.30
2022-09-24T11:45:44.363Z,1.40
2022-09-24T11:49:52.806Z,1.40
2022-09-24T11:54:13.332Z,1.30
2022-09-24T11:58:30.295Z,1.70
2022-09-24T12:02:51.772Z,1.10
2022-09-24T12:07:12.422Z,1.30
2022-09-24T12:11:43.027Z,1.20
2022-09-24T12:15:57.011Z,1.30
2022-09-24T12:20:20.612Z,1.30
2022-09-24T12:24:37.322Z,1.90
2022-09-24T12:29:27.617Z,2.90
2022-09-24T12:33:39.243Z,2.50
2022-09-24T12:37:43.795Z,4.40
2022-09-24T12:41:58.317Z,3.50
2022-09-24T12:46:03.687Z,2.20
2022-09-24T12:50:21.700Z,2.00
2022-09-24T12:54:42.976Z,2.40
2022-09-24T12:58:46.119Z,1.70
2022-09-24T13:02:48.381Z,2.30
2022-09-24T13:06:50.720Z,5.60
2022-09-24T13:11:00.708Z,5.50
2022-09-24T13:15:07.706Z,6.10
2022-09-24T13:19:25.157Z,4.20
2022-09-24T13:23:28.971Z,10.10
2022-09-24T13:27:31.074Z,5.50
2022-09-24T13:31:47.182Z,4.50
2022-09-24T13:36:17.875Z,2.80
2022-09-24T13:40:25.577Z,2.60
2022-09-24T13:44:30.330Z,2.80
2022-09-24T13:48:44.869Z,2.20
2022-09-24T13:53:11.417Z,2.20
2022-09-24T13:57:42.280Z,2.30
2022-09-24T14:02:13.751Z,2.80
2022-09-24T14:06:22.102Z,2.10
2022-09-24T14:10:27.521Z,2.30
2022-09-24T14:14:30.803Z,2.90
2022-09-24T14:18:33.554Z,1.60
2022-09-24T14:22:40.788Z,1.90
2022-09-24T14:27:00.651Z,1.90
2022-09-24T14:31:08.955Z,2.50
2022-09-24T14:39:41.874Z,3.30
2022-09-24T14:43:56.574Z,4.20
2022-09-24T14:48:17.363Z,2.70
2022-09-24T14:52:35.679Z,1.80
2022-09-24T14:56:37.650Z,1.60
2022-09-24T15:00:57.290Z,1.90
2022-09-24T15:05:06.451Z,1.80
2022-09-24T15:09:18.347Z,1.70
2022-09-24T15:13:29.500Z,2.00
2022-09-24T15:17:34.857Z,1.80
2022-09-24T15:21:38.718Z,1.60
2022-09-24T15:25:42.934Z,1.60
2022-09-24T15:29:45.030Z,1.80
2022-09-24T15:33:47.731Z,1.80
2022-09-24T15:37:49.790Z,2.40
2022-09-24T15:41:52.198Z,2.60
2022-09-24T15:45:54.179Z,2.00
2022-09-24T15:49:56.203Z,1.90
2022-09-24T15:53:58.223Z,1.90
2022-09-24T15:58:01.575Z,2.00
2022-09-24T16:02:17.768Z,3.00
2022-09-24T16:06:21.457Z,2.00
2022-09-24T16:10:23.683Z,2.00
2022-09-24T16:14:25.705Z,1.70
2022-09-24T16:18:28.048Z,3.40
2022-09-24T16:22:30.493Z,1.80
2022-09-24T16:26:34.261Z,2.30
2022-09-24T16:30:38.741Z,1.70
2022-09-24T16:34:40.941Z,2.80
2022-09-24T16:38:42.970Z,4.70
2022-09-24T16:42:44.938Z,5.50
2022-09-24T16:46:47.017Z,5.10
2022-09-24T16:50:49.101Z,4.80
2022-09-24T16:54:51.402Z,5.80
2022-09-24T16:58:54.019Z,5.50
2022-09-24T17:02:56.575Z,5.70
2022-09-24T17:06:58.829Z,6.40
2022-09-24T17:11:00.824Z,9.00
2022-09-24T17:15:03.006Z,12.10
2022-09-24T17:19:07.571Z,11.20
2022-09-24T17:23:09.634Z,6.90
2022-09-24T17:27:11.805Z,7.70
2022-09-24T17:31:17.698Z,6.10
2022-09-24T17:35:20.727Z,5.00
2022-09-24T17:39:22.844Z,10.00
2022-09-24T17:43:25.282Z,9.40
2022-09-24T17:47:47.169Z,11.30
2022-09-24T17:51:49.111Z,7.70
2022-09-24T17:55:52.435Z,6.80
2022-09-24T17:59:55.037Z,7.20
2022-09-24T18:03:57.987Z,6.10
2022-09-24T18:07:59.976Z,6.40
2022-09-24T18:12:02.053Z,6.80
2022-09-24T18:16:09.825Z,6.70
2022-09-24T18:20:12.167Z,5.40
2022-09-24T18:24:15.903Z,8.30
2022-09-24T18:28:18.944Z,10.00
2022-09-24T18:32:22.808Z,14.50
2022-09-24T18:36:27.421Z,17.80
2022-09-24T18:40:29.473Z,30.10
2022-09-24T18:44:33.261Z,29.20
2022-09-24T18:48:35.313Z,30.40
2022-09-24T18:52:37.468Z,28.60
2022-09-24T18:56:39.764Z,32.60
2022-09-24T19:00:55.284Z,33.70
2022-09-24T19:04:57.186Z,34.30
2022-09-24T19:08:59.866Z,32.30
2022-09-24T19:13:02.744Z,36.90
2022-09-24T19:17:06.685Z,29.00
2022-09-24T19:21:10.257Z,29.80
2022-09-24T19:25:12.175Z,27.80
2022-09-24T19:29:14.173Z,29.90
2022-09-24T19:33:16.673Z,29.80
2022-09-24T19:37:18.978Z,33.10
2022-09-24T19:41:26.905Z,31.10
2022-09-24T19:45:29.587Z,28.70
2022-09-24T19:49:31.521Z,30.90
2022-09-24T19:53:33.852Z,33.30
2022-09-24T19:57:35.869Z,34.20
2022-09-24T20:01:37.964Z,40.60
2022-09-24T20:05:42.811Z,42.60
2022-09-24T20:09:45.098Z,42.00
2022-09-24T20:13:48.928Z,39.50
2022-09-24T20:17:51.005Z,41.50
2022-09-24T20:21:56.978Z,43.90
2022-09-24T20:26:17.676Z,51.20
2022-09-24T20:30:23.359Z,49.00
2022-09-24T20:34:32.850Z,47.40
2022-09-24T20:38:34.803Z,44.20
2022-09-24T20:42:38.282Z,40.50
2022-09-24T20:46:40.379Z,38.50
2022-09-24T20:50:42.598Z,38.60
2022-09-24T20:54:44.694Z,37.50
2022-09-24T20:58:50.232Z,36.40
2022-09-24T21:02:52.345Z,34.80
2022-09-24T21:06:54.727Z,35.30
2022-09-24T21:11:01.985Z,37.80
2022-09-24T21:15:06.887Z,36.40
2022-09-24T21:19:09.303Z,36.90
2022-09-24T21:23:13.269Z,37.70
2022-09-24T21:27:15.857Z,37.00
2022-09-24T21:31:21.054Z,35.90
2022-09-24T21:35:23.151Z,38.00
2022-09-24T21:39:27.448Z,35.30
2022-09-24T21:43:34.432Z,34.50
2022-09-24T21:47:36.897Z,34.30
2022-09-24T21:51:40.713Z,35.30
2022-09-24T21:55:47.676Z,34.50
2022-09-24T22:00:03.906Z,32.30
2022-09-24T22:04:07.817Z,34.30
2022-09-24T22:08:13.283Z,34.00
2022-09-24T22:12:16.280Z,34.30
2022-09-24T22:16:18.409Z,35.70
2022-09-24T22:20:20.449Z,34.40
2022-09-24T22:24:22.601Z,34.80
2022-09-24T22:28:26.101Z,34.30
2022-09-24T22:32:28.099Z,33.40
2022-09-24T22:36:32.391Z,30.10
2022-09-24T22:40:35.799Z,32.30
2022-09-24T22:44:37.738Z,30.90
2022-09-24T22:48:39.834Z,31.40
2022-09-24T22:52:41.761Z,28.40
2022-09-24T22:56:43.679Z,28.50
2022-09-24T23:00:45.666Z,27.50
2022-09-24T23:04:48.224Z,27.50
2022-09-24T23:08:51.578Z,27.10
2022-09-24T23:12:53.615Z,26.70
2022-09-24T23:16:57.416Z,27.20
2022-09-24T23:20:59.522Z,26.30
2022-09-24T23:25:01.498Z,24.70
2022-09-24T23:29:03.551Z,26.60
2022-09-24T23:33:05.478Z,24.70
2022-09-24T23:37:08.038Z,24.30
2022-09-24T23:41:11.426Z,26.10
2022-09-24T23:45:13.438Z,25.30
2022-09-24T23:49:15.556Z,25.30
2022-09-24T23:53:18.512Z,24.00
2022-09-24T23:57:20.502Z,21.80
